Fine Memorial, MO

3:15 PM CDT on July 30, 2014 (GMT -0500)
Fine Memorial (KAIZ) Elev 869 ft | 38.10 °N, 92.55 °W | Change Station

Current weather conditions updated 20 minutes ago

Clear
Clear
75 °F
Feels Like 75 °F
N
0
Wind Variable Wind from North

Today is forecast to be nearly the same temperature as yesterday.

Today
High -- | Low -- °F
--% Chance of Precip.
Yesterday
High -- | Low -- °F
Precip. -- in
6:11 AM 8:21 PM
Waxing Crescent, 13% visible
Pressure 30.10 in
Visibility 10.0 miles
Clouds Clear
Dew Point 57 °F
Humidity 53%
Rainfall 0.00 in
Snow Depth Not available.
UV 10 out of 12
Pollen 6.30 out of 12
Air Quality Not available.
Flu Activity Not available.
METAR KAIZ 301955Z AUTO 00000KT 10SM CLR 24/14 A3010 RMK AO1

More Conditions Fewer Conditions

Pressure 30.10 in
Visibility 10.0 miles
Clouds Clear
Dew Point 57 °F
Humidity 53%
Rainfall 0.00 in
Snow Depth Not available.
UV 10 out of 12
Pollen 6.30 out of 12
Air Quality Not available.
Flu Activity Not available.
METAR KAIZ 301955Z AUTO 00000KT 10SM CLR 24/14 A3010 RMK AO1

More Conditions Fewer Conditions

10-Day Weather Forecast

Almanac

Astronomy

Jul. 30, 2014 Rise Set
Actual Time 6:11 AM CDT 8:21 PM CDT
Civil Twilight 5:41 AM CDT 8:50 PM CDT
Nautical Twilight 5:05 AM CDT 9:26 PM CDT
Astronomical Twilight 4:26 AM CDT 10:05 PM CDT
Moon 9:39 AM CDT 10:08 PM CDT
Length of Visible Light 15h 08m
Length of Day
14h 10m
Tomorrow will be 1m 48s shorter.
Waxing Crescent, 13% of the Moon is Illuminated
Today
Waxing Crescent
Aug 3
First Quarter
Aug 10
Full
Aug 17
Last Quarter
Aug 25
New

Today's Extremes

State Highs State Lows

Community

WunderPhotos

Upload Photos

1,739,178 photos uploaded!

WunderBlogs® & News

Nearby

Snow Depth

Station Depth Elevation
No new snow has been reported.

Earthquake Activity

City Distance Mag. Time & Date
No recent earthquake activity has been reported nearby.
Minimum magnitude displayed is 2.5.

Coastal Water Temperatures

Place Temperature
No Stations Reporting

Nearby Weather Stations

Station Location Temp. Heat Index Dew Point Humidity Wind Precip. Elev Updated Type
Near Big Surf, Linn Creek, MO 71.6 °F 72 °F 65 °F 81% NW  at  0.0 mph 0.00 in / hr 902 ft 3:10 PM CDT Normal
CAMDENTON, MO 75.0 °F 77 °F 62 °F 63% NNW  at  0.0 mph 0.00 in / hr 961 ft 3:14 PM CDT Normal
Bridal Cave, Camdenton, MO 76.1 °F 78 °F 61 °F 61% SSW  at  0.0 mph 0.00 in / hr 719 ft 3:14 PM CDT Rapid Fire
Eldon, MO 76.6 °F 78 °F 64 °F 64% NE  at  0.7 mph 0.00 in / hr 918 ft 3:14 PM CDT Rapid Fire
Pulaski County OEM4, Crocker, MO 78.4 °F 80 °F 64 °F 62% SW  at  3.1 mph 2.03 in / hr 1109 ft 2:36 PM CDT Rapid Fire
Rural Lebanon, Lebanon, MO 73.5 °F 76 °F 62 °F 68% North  at  0.0 mph 0.00 in / hr 1160 ft 3:14 PM CDT Rapid Fire

Show More Stations Show Fewer Stations